»·PEaware :: N219ME 3L2-49X

N219ME :: 3L2-49X

FLIGHT INFORMATION

Flight Status: Arrived
Operator: Privately registered:
United States
More flights under this callsign
Pilot: Mark E. (33670)
Aircraft: CESSNA 182 SKYLANE
(C182)
More flights by this aircraft type
Origin: 3L2 Sky Ranch
United States
Destination: 49X Chemehuevi Valley
United States
More flights between these airports :: More routes between these airports
Route: WHIGG GFS EED
File this flight plan on PilotEdge
Remarks:
Altitude:
(Current/Filed)
9,500ft
Speed:
(Current/Filed)
145kts
Departed: 27-Sep-21 05:44 AM
Arrived: 27-Sep-21 06:31 AM
Distance/Time
Traveled:
96nm/0:47
Distance/Time
To Go:
Arrived

Flight Plot

Page will automatically refresh every two minutes.


Map Options




Map Legend


Flown Route
Filed Route
Departure Airport
Arrival Airport
Navaid (VOR, NDB)
Fix

Horizontal Profiles

Position Reports

Time Latitude Longitude Heading Altitude Ground
Speed
27-Sep-21 05:34 35.794202 -115.624989 318 2602ft 0kts
27-Sep-21 05:35 35.794202 -115.624990 318 2602ft 0kts
27-Sep-21 05:36 35.794202 -115.624990 318 2602ft 0kts
27-Sep-21 05:37 35.794203 -115.624991 318 2602ft 0kts
27-Sep-21 05:38 35.794203 -115.624991 318 2602ft 0kts
27-Sep-21 05:40 35.794203 -115.624991 318 2602ft 0kts
27-Sep-21 05:40 35.795767 -115.624880 43 2602ft 20kts
27-Sep-21 05:41 35.800615 -115.619070 45 2602ft 17kts
27-Sep-21 05:42 35.801045 -115.618670 222 2602ft 0kts
27-Sep-21 05:43 35.792773 -115.628789 227 2827ft 74kts
27-Sep-21 05:44 35.774371 -115.621595 149 3598ft 75kts
27-Sep-21 05:45 35.754411 -115.614303 162 4336ft 77kts
27-Sep-21 05:46 35.733570 -115.606208 165 5121ft 78kts
27-Sep-21 05:47 35.712390 -115.599008 165 5841ft 80kts
27-Sep-21 05:48 35.690627 -115.591791 165 6651ft 82kts
27-Sep-21 05:49 35.668506 -115.582575 165 7380ft 87kts
27-Sep-21 05:50 35.645096 -115.574875 166 8136ft 88kts
27-Sep-21 05:51 35.621495 -115.566854 164 8890ft 88kts
27-Sep-21 05:52 35.597128 -115.558854 167 9517ft 101kts
27-Sep-21 05:53 35.562747 -115.547923 165 9506ft 143kts
27-Sep-21 05:54 35.523327 -115.535530 165 9503ft 147kts
27-Sep-21 05:55 35.489864 -115.507518 138 9503ft 148kts
27-Sep-21 05:56 35.458747 -115.474539 140 9503ft 148kts
27-Sep-21 05:57 35.426621 -115.442694 143 9503ft 148kts
27-Sep-21 05:58 35.391699 -115.415906 148 9502ft 148kts
27-Sep-21 05:59 35.358262 -115.386538 140 9502ft 148kts
27-Sep-21 06:00 35.326019 -115.355093 141 9502ft 148kts
27-Sep-21 06:01 35.293084 -115.324691 143 9502ft 148kts
27-Sep-21 06:02 35.259842 -115.294751 143 9502ft 148kts
27-Sep-21 06:03 35.226637 -115.264858 143 9502ft 148kts
27-Sep-21 06:04 35.193719 -115.234671 140 9502ft 148kts
27-Sep-21 06:05 35.161419 -115.203200 143 9503ft 148kts
27-Sep-21 06:06 35.128456 -115.172914 133 9499ft 148kts
27-Sep-21 06:07 35.107188 -115.129900 119 9502ft 148kts
27-Sep-21 06:08 35.086794 -115.086148 119 9502ft 148kts
27-Sep-21 06:09 35.065616 -115.042990 121 9502ft 148kts
27-Sep-21 06:10 35.042470 -115.001334 126 9503ft 148kts
27-Sep-21 06:11 35.018485 -114.960498 121 9503ft 148kts
27-Sep-21 06:12 34.996866 -114.917502 121 9502ft 148kts
27-Sep-21 06:13 34.975244 -114.874722 121 9502ft 148kts
27-Sep-21 06:14 34.953626 -114.831963 121 9502ft 148kts
27-Sep-21 06:15 34.931629 -114.788468 121 9134ft 155kts
27-Sep-21 06:16 34.908299 -114.744194 123 8635ft 155kts
27-Sep-21 06:17 34.884889 -114.701358 123 8099ft 147kts
27-Sep-21 06:18 34.862406 -114.660229 123 7498ft 145kts
27-Sep-21 06:19 34.841031 -114.618612 121 6898ft 145kts
27-Sep-21 06:20 34.819865 -114.576932 122 6300ft 145kts
27-Sep-21 06:21 34.798081 -114.535525 122 5700ft 145kts
27-Sep-21 06:22 34.776354 -114.494190 121 5101ft 145kts
27-Sep-21 06:23 34.749029 -114.460536 159 4510ft 144kts
27-Sep-21 06:24 34.709759 -114.450151 172 3914ft 144kts
27-Sep-21 06:25 34.671085 -114.445321 175 3313ft 138kts
27-Sep-21 06:26 34.632937 -114.441373 174 2712ft 137kts
27-Sep-21 06:27 34.596073 -114.437362 176 2107ft 124kts
27-Sep-21 06:28 34.564643 -114.435118 176 1497ft 98kts
27-Sep-21 06:29 34.542347 -114.432953 173 924ft 66kts
27-Sep-21 06:30 34.527946 -114.431141 174 634ft 17kts
27-Sep-21 06:31 34.527817 -114.430106 260 634ft 0kts
27-Sep-21 06:32 34.527817 -114.430106 260 634ft 0kts
27-Sep-21 06:33 34.527817 -114.430106 260 634ft 0kts

Navigation Log

Ident Type
Flight plan parsing failed, navigation log unavailable